DLH839 EKBI-EDDF
Flight info
| Callsign | DLH839 |
|---|---|
| Flight time | 0h 57m |
| Altitude | 39000 |
| Route | EKBI/09 ALS M852 EKERN DCT RIMET/N0401F310 T157 KOKEB/N0355F230 T157 KERAX KERAX5A |
| Aircraft | A319/M-SADE2E3FGIJ1LORWXYZ/HB1 |
Departure
| Time | 2026-04-17 12:53 |
|---|---|
| Airport | Billund Airport (EKBI) |
Arrival
| Time | 2026-04-17 13:51 |
|---|---|
| Airport | Frankfurt Main Airport (EDDF) |
| Time | Latitude | Longitude | Altitude | Speed | Heading |
|---|---|---|---|---|---|
| 2026-04-17 12:26 | 55.74534 | 9.14815 | 216 ft | 0 kts | 357° |
| 2026-04-17 12:46 | 55.74525 | 9.14816 | 216 ft | 4 kts | 357° |
| 2026-04-17 12:46 | 55.74498 | 9.14819 | 216 ft | 4 kts | 354° |
| 2026-04-17 12:47 | 55.74471 | 9.14827 | 222 ft | 4 kts | 340° |
| 2026-04-17 12:47 | 55.74452 | 9.14848 | 219 ft | 4 kts | 283° |
| 2026-04-17 12:47 | 55.74451 | 9.14858 | 218 ft | 0 kts | 267° |
| 2026-04-17 12:49 | 55.74451 | 9.14856 | 218 ft | 1 kts | 268° |
| 2026-04-17 12:50 | 55.74450 | 9.14826 | 220 ft | 3 kts | 268° |
| 2026-04-17 12:50 | 55.74450 | 9.14817 | 220 ft | 0 kts | 268° |
| 2026-04-17 12:50 | 55.74450 | 9.14803 | 218 ft | 3 kts | 268° |
| 2026-04-17 12:51 | 55.74448 | 9.14727 | 216 ft | 9 kts | 267° |
| 2026-04-17 12:51 | 55.74443 | 9.14596 | 216 ft | 12 kts | 266° |
| 2026-04-17 12:51 | 55.74416 | 9.14473 | 216 ft | 11 kts | 206° |
| 2026-04-17 12:51 | 55.74332 | 9.14471 | 216 ft | 13 kts | 177° |
| 2026-04-17 12:52 | 55.74239 | 9.14480 | 216 ft | 14 kts | 177° |
| 2026-04-17 12:52 | 55.74142 | 9.14489 | 216 ft | 13 kts | 176° |
| 2026-04-17 12:52 | 55.74045 | 9.14498 | 220 ft | 13 kts | 177° |
| 2026-04-17 12:52 | 55.74014 | 9.14527 | 219 ft | 5 kts | 104° |
| 2026-04-17 12:53 | 55.74017 | 9.14644 | 216 ft | 30 kts | 86° |
| 2026-04-17 12:53 | 55.74046 | 9.15557 | 216 ft | 114 kts | 86° |
| 2026-04-17 12:53 | 55.74107 | 9.17283 | 513 ft | 147 kts | 88° |
| 2026-04-17 12:53 | 55.74169 | 9.19086 | 1329 ft | 148 kts | 90° |
| 2026-04-17 12:54 | 55.74225 | 9.21010 | 1863 ft | 169 kts | 91° |
| 2026-04-17 12:54 | 55.74280 | 9.23226 | 2404 ft | 189 kts | 89° |
| 2026-04-17 12:54 | 55.74340 | 9.25730 | 2861 ft | 218 kts | 89° |
| 2026-04-17 12:54 | 55.74297 | 9.28529 | 3455 ft | 242 kts | 107° |
| 2026-04-17 12:55 | 55.73350 | 9.31033 | 4271 ft | 253 kts | 143° |
| 2026-04-17 12:55 | 55.71832 | 9.32633 | 5392 ft | 258 kts | 156° |
| 2026-04-17 12:55 | 55.70171 | 9.33901 | 6512 ft | 262 kts | 160° |
| 2026-04-17 12:55 | 55.68459 | 9.35089 | 7574 ft | 267 kts | 160° |
| 2026-04-17 12:56 | 55.66717 | 9.36314 | 8606 ft | 272 kts | 159° |
| 2026-04-17 12:56 | 55.64954 | 9.37621 | 9663 ft | 277 kts | 158° |
| 2026-04-17 12:56 | 55.63159 | 9.38931 | 10601 ft | 285 kts | 159° |
| 2026-04-17 12:56 | 55.61232 | 9.40300 | 11013 ft | 311 kts | 159° |
| 2026-04-17 12:57 | 55.59148 | 9.41775 | 11409 ft | 334 kts | 159° |
| 2026-04-17 12:57 | 55.56949 | 9.43330 | 12075 ft | 345 kts | 159° |
| 2026-04-17 12:57 | 55.54700 | 9.44921 | 12916 ft | 351 kts | 160° |
| 2026-04-17 12:57 | 55.53192 | 9.45987 | 13490 ft | 354 kts | 160° |
| 2026-04-17 12:58 | 55.50887 | 9.47618 | 14314 ft | 359 kts | 160° |
| 2026-04-17 12:58 | 55.48556 | 9.49266 | 15035 ft | 365 kts | 159° |
| 2026-04-17 12:58 | 55.46177 | 9.50941 | 15714 ft | 371 kts | 160° |
| 2026-04-17 12:58 | 55.43767 | 9.52638 | 16451 ft | 375 kts | 159° |
| 2026-04-17 12:59 | 55.41332 | 9.54360 | 17219 ft | 379 kts | 159° |
| 2026-04-17 12:59 | 55.38865 | 9.56099 | 17899 ft | 385 kts | 160° |
| 2026-04-17 12:59 | 55.36356 | 9.57852 | 18608 ft | 390 kts | 160° |
| 2026-04-17 12:59 | 55.33821 | 9.59612 | 19224 ft | 395 kts | 161° |
| 2026-04-17 13:00 | 55.31248 | 9.61404 | 19848 ft | 399 kts | 160° |
| 2026-04-17 13:00 | 55.28653 | 9.63219 | 20465 ft | 404 kts | 160° |
| 2026-04-17 13:00 | 55.26031 | 9.65053 | 21083 ft | 408 kts | 161° |
| 2026-04-17 13:00 | 55.23377 | 9.66910 | 21674 ft | 413 kts | 161° |
| 2026-04-17 13:01 | 55.20696 | 9.68778 | 22258 ft | 417 kts | 161° |
| 2026-04-17 13:01 | 55.17983 | 9.70663 | 22829 ft | 421 kts | 161° |
| 2026-04-17 13:01 | 55.15247 | 9.72563 | 23381 ft | 425 kts | 161° |
| 2026-04-17 13:01 | 55.12480 | 9.74478 | 23904 ft | 430 kts | 161° |
| 2026-04-17 13:02 | 55.09687 | 9.76413 | 24334 ft | 434 kts | 161° |
| 2026-04-17 13:02 | 55.06864 | 9.78369 | 24769 ft | 438 kts | 161° |
| 2026-04-17 13:02 | 55.04019 | 9.80335 | 25212 ft | 442 kts | 161° |
| 2026-04-17 13:02 | 55.01149 | 9.82315 | 25651 ft | 445 kts | 161° |
| 2026-04-17 13:03 | 54.98256 | 9.84301 | 26082 ft | 449 kts | 161° |
| 2026-04-17 13:03 | 54.95337 | 9.86297 | 26506 ft | 453 kts | 161° |
| 2026-04-17 13:03 | 54.92386 | 9.88307 | 26881 ft | 458 kts | 161° |
| 2026-04-17 13:03 | 54.89401 | 9.90334 | 27284 ft | 462 kts | 161° |
| 2026-04-17 13:04 | 54.86394 | 9.92370 | 27683 ft | 466 kts | 162° |
| 2026-04-17 13:04 | 54.83290 | 9.93970 | 28038 ft | 466 kts | 171° |
| 2026-04-17 13:04 | 54.80087 | 9.94749 | 28423 ft | 465 kts | 180° |
| 2026-04-17 13:04 | 54.76856 | 9.94678 | 28801 ft | 463 kts | 189° |
| 2026-04-17 13:05 | 54.73679 | 9.93815 | 29175 ft | 463 kts | 195° |
| 2026-04-17 13:05 | 54.70506 | 9.92756 | 29555 ft | 466 kts | 195° |
| 2026-04-17 13:05 | 54.67305 | 9.91709 | 29928 ft | 469 kts | 195° |
| 2026-04-17 13:05 | 54.64087 | 9.90672 | 30286 ft | 472 kts | 195° |
| 2026-04-17 13:06 | 54.60849 | 9.89639 | 30635 ft | 474 kts | 195° |
| 2026-04-17 13:06 | 54.57610 | 9.88616 | 31119 ft | 471 kts | 195° |
| 2026-04-17 13:06 | 54.54395 | 9.87605 | 31631 ft | 469 kts | 195° |
| 2026-04-17 13:06 | 54.51167 | 9.86770 | 32138 ft | 471 kts | 189° |
| 2026-04-17 13:07 | 54.47876 | 9.86708 | 32615 ft | 476 kts | 181° |
| 2026-04-17 13:07 | 54.44620 | 9.87109 | 33090 ft | 475 kts | 181° |
| 2026-04-17 13:07 | 54.41324 | 9.87514 | 33578 ft | 474 kts | 181° |
| 2026-04-17 13:07 | 54.38037 | 9.87911 | 34075 ft | 473 kts | 181° |
| 2026-04-17 13:08 | 54.34758 | 9.88302 | 34510 ft | 472 kts | 181° |
| 2026-04-17 13:08 | 54.31480 | 9.88692 | 34900 ft | 472 kts | 181° |
| 2026-04-17 13:08 | 54.28199 | 9.89085 | 35297 ft | 472 kts | 181° |
| 2026-04-17 13:08 | 54.24924 | 9.89477 | 35684 ft | 472 kts | 181° |
| 2026-04-17 13:09 | 54.21651 | 9.89867 | 36061 ft | 472 kts | 181° |
| 2026-04-17 13:09 | 54.18376 | 9.90253 | 36420 ft | 472 kts | 181° |
| 2026-04-17 13:09 | 54.15105 | 9.90637 | 36773 ft | 471 kts | 180° |
| 2026-04-17 13:09 | 54.11829 | 9.91025 | 37113 ft | 471 kts | 180° |
| 2026-04-17 13:10 | 54.08559 | 9.91412 | 37425 ft | 471 kts | 180° |
| 2026-04-17 13:10 | 54.05288 | 9.91795 | 37754 ft | 471 kts | 180° |
| 2026-04-17 13:10 | 54.02019 | 9.92180 | 38076 ft | 471 kts | 180° |
| 2026-04-17 13:10 | 53.98752 | 9.92567 | 38400 ft | 471 kts | 180° |
| 2026-04-17 13:11 | 53.95481 | 9.92952 | 38734 ft | 470 kts | 180° |
| 2026-04-17 13:11 | 53.92220 | 9.93332 | 39016 ft | 470 kts | 180° |
| 2026-04-17 13:11 | 53.88948 | 9.93710 | 39195 ft | 471 kts | 180° |
| 2026-04-17 13:12 | 53.82457 | 9.93625 | 39235 ft | 465 kts | 188° |
| 2026-04-17 13:12 | 53.72846 | 9.92531 | 39248 ft | 464 kts | 188° |
| 2026-04-17 13:13 | 53.66359 | 9.91787 | 39248 ft | 464 kts | 188° |
| 2026-04-17 13:13 | 53.59953 | 9.91063 | 39248 ft | 464 kts | 188° |
| 2026-04-17 13:14 | 53.53504 | 9.90341 | 39238 ft | 465 kts | 188° |
| 2026-04-17 13:14 | 53.47057 | 9.89616 | 39242 ft | 465 kts | 188° |
| 2026-04-17 13:15 | 53.40599 | 9.88897 | 39240 ft | 465 kts | 188° |
| 2026-04-17 13:15 | 53.34146 | 9.88168 | 39244 ft | 465 kts | 188° |
| 2026-04-17 13:16 | 53.27689 | 9.87437 | 39234 ft | 465 kts | 188° |
| 2026-04-17 13:16 | 53.21225 | 9.86719 | 39241 ft | 466 kts | 188° |
| 2026-04-17 13:17 | 53.14752 | 9.86017 | 39249 ft | 466 kts | 188° |
| 2026-04-17 13:17 | 53.08282 | 9.85306 | 39252 ft | 466 kts | 188° |
| 2026-04-17 13:18 | 53.01804 | 9.84591 | 39256 ft | 467 kts | 188° |
| 2026-04-17 13:18 | 52.95321 | 9.83890 | 39258 ft | 467 kts | 188° |
| 2026-04-17 13:19 | 52.88839 | 9.83178 | 39260 ft | 467 kts | 188° |
| 2026-04-17 13:19 | 52.82354 | 9.82458 | 39239 ft | 467 kts | 188° |
| 2026-04-17 13:20 | 52.75864 | 9.81751 | 39247 ft | 468 kts | 188° |
| 2026-04-17 13:20 | 52.69411 | 9.81053 | 39257 ft | 468 kts | 188° |
| 2026-04-17 13:21 | 52.62913 | 9.80360 | 39261 ft | 468 kts | 188° |
| 2026-04-17 13:21 | 52.56412 | 9.79665 | 39241 ft | 468 kts | 188° |
| 2026-04-17 13:22 | 52.49909 | 9.78966 | 39232 ft | 468 kts | 188° |
| 2026-04-17 13:22 | 52.43417 | 9.78259 | 39237 ft | 468 kts | 188° |
| 2026-04-17 13:23 | 52.36916 | 9.77556 | 39235 ft | 468 kts | 188° |
| 2026-04-17 13:23 | 52.30418 | 9.76875 | 39225 ft | 468 kts | 188° |
| 2026-04-17 13:24 | 52.23916 | 9.76188 | 39232 ft | 468 kts | 188° |
| 2026-04-17 13:24 | 52.17410 | 9.75493 | 39229 ft | 469 kts | 188° |
| 2026-04-17 13:25 | 52.10903 | 9.74814 | 39207 ft | 468 kts | 188° |
| 2026-04-17 13:25 | 52.04399 | 9.74136 | 39212 ft | 469 kts | 188° |
| 2026-04-17 13:26 | 51.97888 | 9.73452 | 39216 ft | 469 kts | 187° |
| 2026-04-17 13:26 | 51.91423 | 9.72773 | 39212 ft | 469 kts | 188° |
| 2026-04-17 13:27 | 51.84914 | 9.72082 | 39205 ft | 469 kts | 188° |
| 2026-04-17 13:27 | 51.78406 | 9.71404 | 39208 ft | 469 kts | 187° |
| 2026-04-17 13:28 | 51.71893 | 9.70726 | 39210 ft | 469 kts | 187° |
| 2026-04-17 13:28 | 51.65382 | 9.70049 | 39226 ft | 469 kts | 187° |
| 2026-04-17 13:29 | 51.58856 | 9.69384 | 39216 ft | 470 kts | 187° |
| 2026-04-17 13:29 | 51.52328 | 9.68720 | 39163 ft | 471 kts | 187° |
| 2026-04-17 13:30 | 51.49062 | 9.68384 | 38940 ft | 470 kts | 187° |
| 2026-04-17 13:30 | 51.45794 | 9.68046 | 38662 ft | 470 kts | 187° |
| 2026-04-17 13:30 | 51.42530 | 9.67706 | 38376 ft | 470 kts | 188° |
| 2026-04-17 13:30 | 51.39265 | 9.67371 | 38073 ft | 471 kts | 187° |
| 2026-04-17 13:31 | 51.35990 | 9.67040 | 37754 ft | 471 kts | 187° |
| 2026-04-17 13:31 | 51.32717 | 9.66714 | 36930 ft | 473 kts | 187° |
| 2026-04-17 13:31 | 51.29417 | 9.66386 | 36007 ft | 477 kts | 187° |
| 2026-04-17 13:31 | 51.26092 | 9.66049 | 35028 ft | 482 kts | 188° |
| 2026-04-17 13:32 | 51.22733 | 9.65704 | 34021 ft | 486 kts | 188° |
| 2026-04-17 13:32 | 51.19339 | 9.65353 | 32931 ft | 490 kts | 187° |
| 2026-04-17 13:32 | 51.15948 | 9.65006 | 32050 ft | 487 kts | 187° |
| 2026-04-17 13:32 | 51.12563 | 9.64665 | 31008 ft | 488 kts | 187° |
| 2026-04-17 13:33 | 51.09173 | 9.64325 | 29914 ft | 489 kts | 187° |
| 2026-04-17 13:33 | 51.05774 | 9.63982 | 28635 ft | 490 kts | 186° |
| 2026-04-17 13:33 | 51.02363 | 9.63641 | 27332 ft | 491 kts | 186° |
| 2026-04-17 13:33 | 50.98954 | 9.63303 | 26225 ft | 489 kts | 186° |
| 2026-04-17 13:34 | 50.95573 | 9.62969 | 25120 ft | 485 kts | 186° |
| 2026-04-17 13:34 | 50.92217 | 9.62634 | 24124 ft | 480 kts | 186° |
| 2026-04-17 13:34 | 50.88911 | 9.62304 | 23100 ft | 474 kts | 186° |
| 2026-04-17 13:34 | 50.85644 | 9.61977 | 22099 ft | 467 kts | 186° |
| 2026-04-17 13:35 | 50.82422 | 9.61650 | 21167 ft | 461 kts | 186° |
| 2026-04-17 13:35 | 50.79244 | 9.61329 | 20283 ft | 454 kts | 186° |
| 2026-04-17 13:35 | 50.76107 | 9.61016 | 19450 ft | 449 kts | 186° |
| 2026-04-17 13:35 | 50.73002 | 9.60710 | 18630 ft | 444 kts | 185° |
| 2026-04-17 13:36 | 50.69943 | 9.60410 | 17880 ft | 437 kts | 185° |
| 2026-04-17 13:36 | 50.66947 | 9.60114 | 17258 ft | 427 kts | 185° |
| 2026-04-17 13:36 | 50.64006 | 9.59820 | 16663 ft | 419 kts | 185° |
| 2026-04-17 13:36 | 50.61121 | 9.59531 | 16081 ft | 413 kts | 185° |
| 2026-04-17 13:37 | 50.58269 | 9.59249 | 15471 ft | 409 kts | 185° |
| 2026-04-17 13:37 | 50.55484 | 9.58978 | 14873 ft | 405 kts | 185° |
| 2026-04-17 13:37 | 50.52712 | 9.58421 | 14238 ft | 399 kts | 196° |
| 2026-04-17 13:37 | 50.50164 | 9.56811 | 13540 ft | 393 kts | 211° |
| 2026-04-17 13:38 | 50.48023 | 9.54215 | 12914 ft | 386 kts | 227° |
| 2026-04-17 13:38 | 50.46435 | 9.50916 | 12517 ft | 376 kts | 241° |
| 2026-04-17 13:38 | 50.45430 | 9.47169 | 12128 ft | 371 kts | 254° |
| 2026-04-17 13:38 | 50.44701 | 9.43290 | 11750 ft | 369 kts | 254° |
| 2026-04-17 13:39 | 50.43973 | 9.39429 | 11370 ft | 368 kts | 253° |
| 2026-04-17 13:39 | 50.43244 | 9.35590 | 11005 ft | 366 kts | 253° |
| 2026-04-17 13:39 | 50.42516 | 9.31778 | 10637 ft | 364 kts | 253° |
| 2026-04-17 13:39 | 50.41790 | 9.28002 | 10280 ft | 357 kts | 253° |
| 2026-04-17 13:40 | 50.40908 | 9.24456 | 9919 ft | 343 kts | 239° |
| 2026-04-17 13:40 | 50.39348 | 9.21797 | 9813 ft | 324 kts | 216° |
| 2026-04-17 13:40 | 50.37349 | 9.20428 | 9726 ft | 308 kts | 191° |
| 2026-04-17 13:40 | 50.35272 | 9.20495 | 9647 ft | 294 kts | 168° |
| 2026-04-17 13:41 | 50.33306 | 9.21139 | 9538 ft | 287 kts | 177° |
| 2026-04-17 13:41 | 50.31367 | 9.20673 | 9222 ft | 282 kts | 200° |
| 2026-04-17 13:41 | 50.29563 | 9.19518 | 8911 ft | 279 kts | 204° |
| 2026-04-17 13:41 | 50.27788 | 9.18308 | 8592 ft | 278 kts | 204° |
| 2026-04-17 13:42 | 50.26019 | 9.17090 | 8295 ft | 277 kts | 204° |
| 2026-04-17 13:42 | 50.24364 | 9.15623 | 7979 ft | 274 kts | 220° |
| 2026-04-17 13:42 | 50.22969 | 9.13605 | 7695 ft | 272 kts | 224° |
| 2026-04-17 13:42 | 50.21616 | 9.11556 | 7428 ft | 271 kts | 224° |
| 2026-04-17 13:43 | 50.20266 | 9.09508 | 7184 ft | 270 kts | 224° |
| 2026-04-17 13:43 | 50.18934 | 9.07487 | 6935 ft | 263 kts | 224° |
| 2026-04-17 13:43 | 50.17644 | 9.05528 | 6694 ft | 255 kts | 224° |
| 2026-04-17 13:43 | 50.16484 | 9.03503 | 6433 ft | 247 kts | 239° |
| 2026-04-17 13:44 | 50.15826 | 9.01069 | 6179 ft | 241 kts | 249° |
| 2026-04-17 13:44 | 50.15273 | 8.98642 | 5923 ft | 235 kts | 249° |
| 2026-04-17 13:44 | 50.14724 | 8.96271 | 5669 ft | 230 kts | 249° |
| 2026-04-17 13:44 | 50.14181 | 8.93950 | 5415 ft | 226 kts | 249° |
| 2026-04-17 13:45 | 50.13647 | 8.91673 | 5199 ft | 221 kts | 249° |
| 2026-04-17 13:45 | 50.13303 | 8.90207 | 5133 ft | 214 kts | 249° |
| 2026-04-17 13:45 | 50.12797 | 8.88056 | 4944 ft | 211 kts | 250° |
| 2026-04-17 13:45 | 50.12294 | 8.85916 | 4672 ft | 210 kts | 249° |
| 2026-04-17 13:46 | 50.11791 | 8.83779 | 4389 ft | 210 kts | 249° |
| 2026-04-17 13:46 | 50.11288 | 8.81643 | 4111 ft | 210 kts | 249° |
| 2026-04-17 13:46 | 50.10625 | 8.78830 | 3741 ft | 205 kts | 249° |
| 2026-04-17 13:46 | 50.10298 | 8.77444 | 3559 ft | 199 kts | 249° |
| 2026-04-17 13:47 | 50.09830 | 8.75466 | 3300 ft | 191 kts | 249° |
| 2026-04-17 13:47 | 50.09377 | 8.73552 | 3095 ft | 187 kts | 249° |
| 2026-04-17 13:47 | 50.08933 | 8.71672 | 2802 ft | 183 kts | 249° |
| 2026-04-17 13:47 | 50.08491 | 8.69809 | 2561 ft | 184 kts | 249° |
| 2026-04-17 13:48 | 50.08051 | 8.67952 | 2321 ft | 180 kts | 249° |
| 2026-04-17 13:48 | 50.07629 | 8.66173 | 2076 ft | 170 kts | 249° |
| 2026-04-17 13:48 | 50.07229 | 8.64492 | 1859 ft | 162 kts | 249° |
| 2026-04-17 13:48 | 50.06846 | 8.62878 | 1641 ft | 157 kts | 249° |
| 2026-04-17 13:49 | 50.06479 | 8.61335 | 1444 ft | 144 kts | 249° |
| 2026-04-17 13:49 | 50.06147 | 8.59946 | 1236 ft | 132 kts | 250° |
| 2026-04-17 13:49 | 50.05834 | 8.58643 | 1053 ft | 127 kts | 250° |
| 2026-04-17 13:49 | 50.05530 | 8.57354 | 878 ft | 126 kts | 250° |
| 2026-04-17 13:50 | 50.05230 | 8.56089 | 730 ft | 126 kts | 251° |
| 2026-04-17 13:50 | 50.04927 | 8.54804 | 578 ft | 127 kts | 251° |
| 2026-04-17 13:50 | 50.04619 | 8.53520 | 415 ft | 127 kts | 251° |
| 2026-04-17 13:50 | 50.04331 | 8.52301 | 344 ft | 104 kts | 249° |
| 2026-04-17 13:51 | 50.04166 | 8.51646 | 334 ft | 31 kts | 236° |
| 2026-04-17 13:51 | 50.04034 | 8.51444 | 331 ft | 25 kts | 219° |
| 2026-04-17 13:51 | 50.03928 | 8.51370 | 334 ft | 15 kts | 151° |
| 2026-04-17 13:51 | 50.03924 | 8.51521 | 334 ft | 16 kts | 71° |
| 2026-04-17 13:52 | 50.03968 | 8.51703 | 333 ft | 20 kts | 69° |
| 2026-04-17 13:52 | 50.04022 | 8.51930 | 336 ft | 24 kts | 70° |
| 2026-04-17 13:52 | 50.04078 | 8.52168 | 347 ft | 23 kts | 69° |
| 2026-04-17 13:52 | 50.04136 | 8.52404 | 347 ft | 24 kts | 69° |
| 2026-04-17 13:53 | 50.04198 | 8.52666 | 355 ft | 28 kts | 69° |
| 2026-04-17 13:53 | 50.04265 | 8.52943 | 355 ft | 27 kts | 70° |
| 2026-04-17 13:53 | 50.04329 | 8.53212 | 365 ft | 25 kts | 70° |
| 2026-04-17 13:53 | 50.04383 | 8.53442 | 373 ft | 20 kts | 70° |
| 2026-04-17 13:54 | 50.04422 | 8.53915 | 376 ft | 24 kts | 84° |
| 2026-04-17 13:54 | 50.04439 | 8.54183 | 375 ft | 26 kts | 84° |
| 2026-04-17 13:55 | 50.04381 | 8.54699 | 362 ft | 27 kts | 134° |
| 2026-04-17 13:55 | 50.04241 | 8.54813 | 354 ft | 21 kts | 161° |
| 2026-04-17 13:55 | 50.04023 | 8.54941 | 352 ft | 12 kts | 160° |
| 2026-04-17 13:56 | 50.03847 | 8.55083 | 349 ft | 16 kts | 98° |
| 2026-04-17 13:56 | 50.03883 | 8.55257 | 356 ft | 19 kts | 69° |
| 2026-04-17 13:56 | 50.03934 | 8.55469 | 350 ft | 22 kts | 70° |
| 2026-04-17 13:57 | 50.03993 | 8.55719 | 349 ft | 27 kts | 70° |
| 2026-04-17 13:57 | 50.04059 | 8.55993 | 353 ft | 27 kts | 69° |
| 2026-04-17 13:57 | 50.04193 | 8.56558 | 358 ft | 28 kts | 70° |
| 2026-04-17 13:58 | 50.04262 | 8.56838 | 361 ft | 27 kts | 69° |
| 2026-04-17 13:58 | 50.04397 | 8.57408 | 361 ft | 29 kts | 69° |
| 2026-04-17 13:58 | 50.04462 | 8.57682 | 365 ft | 25 kts | 70° |
| 2026-04-17 13:59 | 50.04592 | 8.58223 | 369 ft | 27 kts | 69° |
| 2026-04-17 13:59 | 50.04655 | 8.58490 | 369 ft | 27 kts | 70° |
| 2026-04-17 13:59 | 50.04705 | 8.58692 | 372 ft | 13 kts | 66° |
| 2026-04-17 14:00 | 50.04778 | 8.58749 | 370 ft | 15 kts | 340° |
| 2026-04-17 14:00 | 50.04875 | 8.58691 | 366 ft | 13 kts | 340° |
| 2026-04-17 14:00 | 50.04957 | 8.58697 | 361 ft | 11 kts | 47° |
| 2026-04-17 14:00 | 50.04949 | 8.58771 | 361 ft | 6 kts | 154° |
| 2026-04-17 14:01 | 50.04918 | 8.58786 | 362 ft | 3 kts | 160° |
| 2026-04-17 14:01 | 50.04904 | 8.58794 | 366 ft | 1 kts | 160° |
| 2026-04-17 14:01 | 50.04899 | 8.58796 | 366 ft | 0 kts | 160° |